Latest Weather Observations for Cleve Airport

IDS60801

Issued at 4:02 pm CDT Friday 27 February 2015 (issued every 30 minutes, with the page automatically refreshed every 10 minutes)

About weather observations | Map of weather stations | Latest weather observations for SA | Other Formats
Station Details ID: 018116 Name: CLEVE AERODROME Lat: -33.71 Lon: 136.50 Height: 175.0 m
Data from the previous 72 hours. | See also: Recent months at Cleve Airport
Date/Time
CDT
Temp
°C
App
Temp
°C
Dew
Point
Rel
Hum
%
Delta-T
°C
Wind Press
QNH
hPa
Press
MSL
hPa
Rain
since 9 am
mm
Dir
 
Spd
km/h
Gust
km/h
Spd
kts
Gust
kts
27/04:00pm 35.5 29.4 0.6 11 17.6 NW 22 32 12 17 1005.5 - 0.0
27/03:30pm 36.1 28.9 1.0 11 17.9 NW 28 39 15 21 1005.4 - 0.0
27/03:00pm 36.7 30.0 1.5 11 18.2 NW 26 39 14 21 1005.7 1005.0 0.0
27/02:30pm 37.0 30.9 2.9 12 18.0 NW 24 41 13 22 1006.0 - 0.0
27/02:00pm 37.6 31.8 2.1 11 18.6 NW 22 35 12 19 1006.5 - 0.0
27/01:30pm 36.1 29.7 3.3 13 17.3 NW 26 35 14 19 1007.0 - 0.0
27/01:00pm 36.5 30.4 4.7 14 17.2 N 26 37 14 20 1007.4 - 0.0
27/12:30pm 35.1 28.6 4.6 15 16.3 N 28 39 15 21 1007.9 - 0.0
27/12:00pm 34.9 28.2 3.5 14 16.5 N 28 43 15 23 1008.3 1007.6 0.0
27/11:30am 35.1 27.8 4.6 15 16.3 N 32 41 17 22 1008.6 - 0.0
27/11:00am 34.4 27.4 5.8 17 15.6 N 32 43 17 23 1008.9 - 0.0
27/10:30am 32.6 25.7 7.4 21 13.9 N 33 44 18 24 1009.0 - 0.0
27/10:00am 30.7 24.4 9.0 26 12.2 N 32 44 17 24 1009.1 - 0.0
27/09:30am 30.7 25.8 8.4 25 12.4 NNE 24 37 13 20 1009.4 - 0.0
27/09:00am 28.4 25.4 10.6 33 10.2 E 17 24 9 13 1009.6 1008.9 0.0
27/08:30am 27.0 24.4 10.7 36 9.3 ENE 15 22 8 12 1009.4 - 0.0
27/08:00am 24.2 21.5 10.5 42 7.6 E 15 19 8 10 1009.2 - 0.0
27/07:30am 22.9 19.8 10.3 45 7.0 E 17 22 9 12 1009.2 - 0.0
27/07:00am 22.5 19.3 10.0 45 6.9 E 17 19 9 10 1009.0 - 0.0
27/06:30am 21.8 19.1 10.3 48 6.3 NNE 15 17 8 9 1009.0 - 0.0
27/06:00am 20.2 17.9 10.6 54 5.3 NNE 13 17 7 9 1008.9 1008.2 0.0
27/05:30am 17.3 14.8 8.4 56 4.6 ENE 11 13 6 7 1009.0 - 0.0
27/05:00am 17.8 15.4 8.6 55 4.8 E 11 13 6 7 1009.0 - 0.0
27/04:30am 17.7 15.5 9.3 58 4.4 E 11 13 6 7 1009.1 - 0.0
27/04:00am 17.5 15.3 9.4 59 4.3 ENE 11 13 6 7 1009.1 - 0.0
27/03:30am 18.0 16.1 9.1 56 4.7 ENE 9 11 5 6 1009.5 - 0.0
27/03:00am 17.9 15.6 7.6 51 5.3 E 9 13 5 7 1009.8 1009.1 0.0
27/02:30am 18.6 16.4 7.7 49 5.6 ESE 9 11 5 6 1009.9 - 0.0
27/02:00am 18.7 16.2 8.1 50 5.5 E 11 13 6 7 1010.2 - 0.0
27/01:30am 19.1 16.4 7.5 47 6.0 ENE 11 13 6 7 1010.6 - 0.0
27/01:00am 19.3 15.9 6.1 42 6.6 E 13 13 7 7 1010.9 - 0.0
27/12:30am 19.4 16.6 6.8 44 6.4 E 11 11 6 6 1011.2 - 0.0
27/12:00am 19.7 17.6 8.1 47 6.1 ENE 9 11 5 6 1011.5 1010.8 0.0
 
Date/Time
CDT
Temp
°C
App
Temp
°C
Dew
Point
Rel
Hum
%
Delta-T
°C
Wind Press
QNH
hPa
Press
MSL
hPa
Rain
since 9 am
mm
Dir
 
Spd
km/h
Gust
km/h
Spd
kts
Gust
kts
26/11:30pm 19.4 17.3 9.9 54 5.1 E 11 15 6 8 1011.6 - 0.0
26/11:00pm 19.9 18.7 12.9 64 4.0 E 11 13 6 7 1011.9 - 0.0
26/10:30pm 20.3 18.9 12.3 60 4.5 E 11 13 6 7 1012.0 - 0.0
26/10:00pm 21.3 19.8 11.9 55 5.3 ESE 11 13 6 7 1011.9 - 0.0
26/09:30pm 21.9 20.0 11.9 53 5.7 ESE 13 13 7 7 1011.6 - 0.0
26/09:00pm 22.4 20.7 11.2 49 6.3 E 11 15 6 8 1011.2 1010.5 0.0
26/08:30pm 23.3 21.8 10.4 44 7.2 E 9 13 5 7 1011.2 - 0.0
26/08:00pm 24.8 21.6 9.9 39 8.3 SE 17 20 9 11 1011.1 - 0.0
26/07:30pm 26.9 23.2 7.9 30 10.3 SE 17 20 9 11 1011.0 - 0.0
26/07:00pm 28.4 24.2 8.1 28 11.1 SE 20 24 11 13 1010.6 - 0.0
26/06:30pm 29.7 25.5 8.2 26 11.9 ESE 20 24 11 13 1010.2 - 0.0
26/06:00pm 29.3 25.8 8.9 28 11.4 E 17 22 9 12 1010.2 1009.5 0.0
26/05:30pm 29.8 25.7 7.7 25 12.1 ESE 19 24 10 13 1010.3 - 0.0
26/05:00pm 29.9 25.3 8.3 26 12.0 SE 22 28 12 15 1010.5 - 0.0
26/04:30pm 30.4 25.8 8.2 25 12.3 SE 22 30 12 16 1010.4 - 0.0
26/04:00pm 30.8 26.4 9.1 26 12.2 SE 22 30 12 16 1010.5 - 0.0
26/03:30pm 31.5 26.6 8.5 24 12.9 SE 24 32 13 17 1010.6 - 0.0
26/03:00pm 31.5 27.1 9.1 25 12.7 SSE 22 28 12 15 1010.9 1010.2 0.0
26/02:30pm 31.1 27.4 9.3 26 12.3 ESE 19 30 10 16 1011.2 - 0.0
26/02:00pm 30.3 26.5 7.5 24 12.5 ESE 17 26 9 14 1011.5 - 0.0
26/01:30pm 29.8 25.8 6.5 23 12.5 ESE 17 26 9 14 1012.0 - 0.0
26/01:00pm 29.3 25.7 6.7 24 12.1 ESE 15 28 8 15 1012.5 - 0.0
26/12:30pm 27.9 24.6 8.2 29 10.8 E 15 22 8 12 1012.8 - 0.0
26/12:00pm 26.5 22.7 8.9 33 9.7 ESE 19 24 10 13 1013.2 1012.5 0.0
26/11:30am 26.6 22.7 9.5 34 9.5 SE 20 26 11 14 1013.6 - 0.0
26/11:00am 26.2 22.3 7.3 30 10.1 SE 17 22 9 12 1013.7 - 0.0
26/10:30am 25.2 22.2 9.1 36 8.8 ESE 15 20 8 11 1013.8 - 0.0
26/10:00am 24.7 21.8 9.8 39 8.2 ESE 15 20 8 11 1013.6 - 0.0
26/09:30am 23.2 20.9 11.6 48 6.6 E 15 20 8 11 1013.6 - 0.0
26/09:00am 21.0 19.8 13.9 64 4.1 ENE 13 17 7 9 1013.5 1012.8 0.0
26/08:30am 19.9 19.5 14.0 69 3.4 E 9 11 5 6 1013.4 - 0.0
26/08:00am 17.6 16.6 13.5 77 2.3 NNE 11 11 6 6 1013.0 - 0.0
26/07:30am 15.5 14.8 13.2 86 1.3 N 9 11 5 6 1013.0 - 0.0
26/07:00am 14.7 13.0 12.6 87 1.2 NNE 13 15 7 8 1012.4 - 0.0
26/06:30am 15.3 13.7 12.8 85 1.4 ENE 13 13 7 7 1012.2 - 0.0
26/06:00am 14.7 13.4 12.4 86 1.3 ENE 11 13 6 7 1011.9 1011.2 0.0
26/05:30am 14.8 14.3 12.5 86 1.3 ENE 7 9 4 5 1011.8 - 0.0
26/05:00am 14.6 13.8 11.7 83 1.6 E 7 9 4 5 1011.8 - 0.0
26/04:30am 14.6 13.4 11.6 82 1.6 ENE 9 9 5 5 1011.5 - 0.0
26/04:00am 15.2 14.1 12.0 81 1.8 SSE 9 13 5 7 1011.4 - 0.0
26/03:30am 16.8 15.7 11.9 73 2.7 N 9 15 5 8 1011.4 - 0.0
26/03:00am 16.4 14.7 13.7 84 1.5 NNE 15 19 8 10 1011.1 1010.4 0.0
26/02:30am 16.0 14.3 13.5 85 1.4 NNE 15 17 8 9 1011.7 - 0.0
26/02:00am 16.1 16.1 13.6 85 1.4 ENE 6 9 3 5 1012.7 - 0.0
26/01:30am 15.3 13.9 12.1 81 1.8 ENE 11 13 6 7 1012.5 - 0.0
26/01:00am 15.4 13.9 11.8 79 2.0 NE 11 13 6 7 1013.1 - 0.0
26/12:30am 15.9 14.4 11.9 77 2.2 NE 11 13 6 7 1013.3 - 0.0
26/12:00am 17.1 16.8 12.8 76 2.4 ENE 6 7 3 4 1014.0 1013.3 0.0
 
Date/Time
CDT
Temp
°C
App
Temp
°C
Dew
Point
Rel
Hum
%
Delta-T
°C
Wind Press
QNH
hPa
Press
MSL
hPa
Rain
since 9 am
mm
Dir
 
Spd
km/h
Gust
km/h
Spd
kts
Gust
kts
25/11:30pm 16.4 15.1 11.3 72 2.8 NE 9 11 5 6 1013.9 - 0.0
25/11:00pm 17.1 16.3 11.2 68 3.2 E 6 7 3 4 1014.3 - 0.0
25/10:30pm 17.9 17.0 10.5 62 4.0 SE 6 7 3 4 1014.8 - 0.0
25/10:00pm 18.9 18.0 10.7 59 4.5 S 6 9 3 5 1014.7 - 0.0
25/09:30pm 18.5 17.6 10.6 60 4.3 E 6 7 3 4 1014.4 - 0.0
25/09:00pm 19.0 17.6 9.5 54 5.1 E 7 9 4 5 1014.0 1013.3 0.0
25/08:30pm 20.3 17.9 10.1 52 5.5 SSE 13 17 7 9 1014.1 - 0.0
25/08:00pm 21.8 18.5 8.0 41 7.3 SE 15 17 8 9 1013.5 - 0.0
25/07:30pm 23.0 18.6 6.7 35 8.4 SE 19 24 10 13 1013.2 - 0.0
25/07:00pm 24.2 20.3 6.9 33 9.1 ESE 17 22 9 12 1012.8 - 0.0
25/06:30pm 24.7 20.3 6.4 31 9.5 SE 19 24 10 13 1012.7 - 0.0
25/06:00pm 25.1 21.1 6.8 31 9.6 SE 17 22 9 12 1012.6 1011.9 0.0
25/05:30pm 25.6 21.3 7.2 31 9.8 ESE 19 26 10 14 1012.5 - 0.0
25/05:00pm 26.8 22.7 7.8 30 10.3 SE 19 24 10 13 1012.8 - 0.0
25/04:30pm 25.8 21.7 8.8 34 9.3 SE 20 28 11 15 1013.0 - 0.0
25/04:00pm 27.0 22.3 9.4 33 9.8 SE 24 32 13 17 1013.2 - 0.0
25/03:30pm 26.6 22.9 9.5 34 9.5 SE 19 28 10 15 1013.6 - 0.0
25/03:00pm 26.6 22.8 9.9 35 9.3 SSE 20 26 11 14 1013.6 1012.9 0.0
25/02:30pm 25.7 21.2 9.9 37 8.8 S 24 33 13 18 1013.8 - 0.0
25/02:00pm 26.1 22.8 9.4 35 9.2 SE 17 26 9 14 1014.1 - 0.0
25/01:30pm 26.3 23.3 9.2 34 9.4 SE 15 24 8 13 1014.4 - 0.0
25/01:00pm 25.4 21.4 8.4 34 9.2 SE 19 28 10 15 1014.8 - 0.0
25/12:30pm 25.3 22.1 8.3 34 9.2 SE 15 22 8 12 1015.4 - 0.0
25/12:00pm 25.2 22.3 8.2 34 9.2 SSE 13 24 7 13 1016.0 1015.3 0.0
25/11:30am 23.7 20.9 8.5 38 8.2 ESE 13 19 7 10 1016.6 - 0.0
25/11:00am 23.8 20.7 9.0 39 8.0 ESE 15 24 8 13 1016.6 - 0.0
25/10:30am 21.8 19.1 10.3 48 6.3 E 15 19 8 10 1016.7 - 0.0
25/10:00am 20.4 17.7 11.6 57 4.9 E 17 22 9 12 1016.8 - 0.0
25/09:30am 19.0 15.9 12.3 65 3.8 E 20 24 11 13 1016.9 - 0.0
25/09:00am 18.3 15.3 12.1 67 3.5 E 19 24 10 13 1017.1 1016.5 0.0
25/08:30am 17.1 16.0 13.0 77 2.3 E 11 15 6 8 1017.0 - 0.0
25/08:00am 15.0 13.9 13.2 89 1.0 NE 11 11 6 6 1017.1 - 0.0
25/07:30am 12.5 11.2 11.2 92 0.7 ENE 9 9 5 5 1017.0 - 0.0
25/07:00am 12.4 10.7 11.1 92 0.7 ENE 11 13 6 7 1016.7 - 0.0
25/06:30am 11.9 9.9 10.3 90 0.8 ENE 11 13 6 7 1016.3 - 0.0
25/06:00am 12.5 10.2 10.6 88 1.0 E 13 15 7 8 1016.3 1015.6 0.0
25/05:30am 13.0 10.9 11.1 88 1.0 E 13 15 7 8 1016.4 - 0.0
25/05:00am 12.7 10.5 10.8 88 1.0 E 13 17 7 9 1016.3 - 0.0
25/04:30am 12.5 9.8 10.2 86 1.2 E 15 17 8 9 1016.5 - 0.0
25/04:00am 12.4 10.0 10.0 85 1.2 E 13 15 7 8 1016.7 - 0.0
25/03:30am 12.8 10.3 9.8 82 1.5 E 13 15 7 8 1016.9 - 0.0
25/03:00am 14.1 11.4 10.3 78 2.0 ESE 15 20 8 11 1017.3 1016.7 0.0
25/02:30am 15.3 12.4 11.1 76 2.3 ESE 17 20 9 11 1017.9 - 0.0
25/02:00am 15.1 11.8 10.9 76 2.2 ESE 19 24 10 13 1017.8 - 0.0
25/01:30am 14.9 11.9 10.7 76 2.2 ESE 17 22 9 12 1018.1 - 0.0
25/01:00am 15.0 11.6 10.4 74 2.4 ESE 19 24 10 13 1018.5 - 0.0
25/12:30am 14.8 11.6 9.8 72 2.6 ESE 17 24 9 13 1018.9 - 0.0
25/12:00am 15.0 11.1 9.6 70 2.8 ESE 20 28 11 15 1019.2 1018.5 0.0
 
Date/Time
CDT
Temp
°C
App
Temp
°C
Dew
Point
Rel
Hum
%
Delta-T
°C
Wind Press
QNH
hPa
Press
MSL
hPa
Rain
since 9 am
mm
Dir
 
Spd
km/h
Gust
km/h
Spd
kts
Gust
kts
24/11:30pm 15.5 11.8 10.1 70 2.9 ESE 20 24 11 13 1019.6 - 0.0
24/11:00pm 15.5 12.3 10.1 70 2.9 SE 17 22 9 12 1019.7 - 0.0
24/10:30pm 15.4 11.8 9.7 69 3.0 SE 19 24 10 13 1019.8 - 0.0
24/10:00pm 15.8 11.5 9.5 66 3.3 SE 22 26 12 14 1020.0 - 0.0
24/09:30pm 16.1 11.4 9.1 63 3.6 SE 24 32 13 17 1019.6 - 0.0
24/09:00pm 16.5 12.2 9.2 62 3.8 SE 22 28 12 15 1019.8 1019.1 0.0
24/08:30pm 16.9 12.1 8.8 59 4.2 SE 24 32 13 17 1019.6 - 0.0
24/08:00pm 17.6 11.2 8.7 56 4.6 SE 32 39 17 21 1019.4 - 0.0
24/07:30pm 18.3 11.3 8.6 53 5.1 SSE 35 43 19 23 1019.4 - 0.0
24/07:00pm 19.3 12.7 8.6 50 5.6 SSE 33 43 18 23 1019.3 - 0.0
24/06:30pm 19.8 13.3 8.8 49 5.8 SE 33 46 18 25 1019.2 - 0.0
24/06:00pm 20.3 13.9 9.5 50 5.8 SSE 33 43 18 23 1019.2 1018.5 0.0
24/05:30pm 20.1 13.7 9.4 50 5.7 SE 33 46 18 25 1019.3 - 0.0
24/05:00pm 20.5 14.2 9.1 48 6.1 SE 32 46 17 25 1019.5 - 0.0
24/04:30pm 20.4 14.2 9.3 49 5.9 SE 32 41 17 22 1019.7 - 0.0

Other Formats:

Comma delimited format used in spreadsheet applications
http://www.bom.gov.au/fwo/IDS60801/IDS60801.94662.axf

JavaScript Object Notation format (JSON) in row-major order
http://www.bom.gov.au/fwo/IDS60801/IDS60801.94662.json